Crossings, Florida
Current Conditions -  °F | °C
As of 12:53 PM on Saturday 25 Oct 2014 (Local Time) from KTMB Reporting Station
Clear Clear  
Wind Chill: 84°   Ceiling: Unl
Heat Index: 84°   Visibility: 10mi
Dew Point: 59°   Wind: 13mph
Humidity: 43%   Direction: 340°NNW
Pressure: 29.91"   Gusts: NA
Location:  25.6565°N, 80.4096°W
Report Text: KTMB 251653Z 34011KT 10SM CLR 29/15 A2991 RMK AO2 SLP129 T02890150
Loading
Personal Weather Stations






























Interactive Weather Map
Tropical Storm Tracking
New forecast layout! Learn more

10-Day Weather Forecast

Advertisements
Track Severe Weather on mobile